Time;durP1;ratioP1;P1;durP2;ratioP2;P2;SDS_P1;SDS_P2;PMS_P1;PMS_P2;Temp;Humidity;BMP_temperature;BMP_pressure;BME280_temperature;BME280_humidity;BME280_pressure;Samples;Min_cycle;Max_cycle;Signal;HPM_P1;HPM_P2
2021/12/01 00:00:50;;;;;;;10.53;8.43;;;1.70;99.90;;;;;;4994583;28;20613;-85
2021/12/01 00:03:16;;;;;;;10.43;8.00;;;1.70;99.90;;;;;;4976504;28;20543;-85
2021/12/01 00:05:42;;;;;;;12.10;7.77;;;1.60;99.90;;;;;;4986258;28;20175;-86
2021/12/01 00:08:08;;;;;;;10.57;7.77;;;1.80;99.90;;;;;;5016698;28;20182;-85
2021/12/01 00:10:36;;;;;;;9.70;8.03;;;1.80;99.90;;;;;;5006616;28;20176;-85
2021/12/01 00:13:06;;;;;;;10.40;8.40;;;2.00;99.90;;;;;;4994795;28;20183;-85
2021/12/01 00:15:32;;;;;;;10.03;7.77;;;1.90;99.90;;;;;;4994523;28;20168;-85
2021/12/01 00:17:57;;;;;;;9.60;7.50;;;1.90;99.90;;;;;;4976042;28;20860;-85
2021/12/01 00:20:24;;;;;;;10.77;7.40;;;1.80;99.90;;;;;;4993667;28;20217;-85
2021/12/01 00:22:50;;;;;;;8.33;7.40;;;1.80;99.90;;;;;;4993553;28;20639;-85
2021/12/01 00:25:22;;;;;;;10.10;7.90;;;1.80;99.90;;;;;;4993918;28;20174;-86
2021/12/01 00:27:49;;;;;;;9.57;6.87;;;1.90;99.90;;;;;;4993648;28;20252;-86
2021/12/01 00:30:17;;;;;;;11.70;7.70;;;1.80;99.90;;;;;;4975915;28;20190;-86
2021/12/01 00:32:43;;;;;;;9.47;7.27;;;1.80;99.90;;;;;;4993040;28;20176;-86
2021/12/01 00:35:10;;;;;;;9.47;6.77;;;1.90;99.90;;;;;;4993465;28;20188;-86
2021/12/01 00:37:36;;;;;;;7.93;7.10;;;1.90;99.90;;;;;;4975683;28;20584;-86
2021/12/01 00:40:04;;;;;;;10.27;7.40;;;2.00;99.90;;;;;;4975510;28;20233;-86
2021/12/01 00:42:30;;;;;;;10.13;6.93;;;2.10;99.90;;;;;;4993391;28;20266;-85
2021/12/01 00:44:59;;;;;;;12.33;7.23;;;1.90;99.90;;;;;;4993502;28;20247;-86
2021/12/01 00:47:42;;;;;;;8.27;7.03;;;1.80;99.90;;;;;;4993206;28;20269;-85
2021/12/01 00:50:08;;;;;;;8.33;6.87;;;1.70;99.90;;;;;;4973462;28;20188;-85
2021/12/01 00:52:34;;;;;;;8.73;7.20;;;1.80;99.90;;;;;;4978623;28;20199;-84
2021/12/01 00:55:00;;;;;;;9.97;7.30;;;1.80;99.90;;;;;;4957223;28;20188;-85
2021/12/01 00:57:26;;;;;;;8.17;6.43;;;1.80;99.90;;;;;;4974879;28;20184;-85
2021/12/01 00:59:51;;;;;;;8.97;7.27;;;1.80;99.90;;;;;;4973379;28;20184;-86
2021/12/01 01:02:17;;;;;;;7.20;6.37;;;1.80;99.90;;;;;;4973587;28;20346;-85
2021/12/01 01:04:45;;;;;;;9.60;6.73;;;1.70;99.90;;;;;;4990503;28;20196;-84
2021/12/01 01:07:10;;;;;;;10.00;6.87;;;1.70;99.90;;;;;;4992816;28;20225;-85
2021/12/01 01:09:38;;;;;;;7.87;6.67;;;1.80;99.90;;;;;;4992713;28;20203;-86
2021/12/01 01:17:41;;;;;;;7.07;6.37;;;1.70;99.90;;;;;;4992640;28;20267;-85
2021/12/01 01:20:10;;;;;;;7.47;6.17;;;1.80;99.90;;;;;;4992369;28;20171;-85
2021/12/01 01:22:37;;;;;;;8.27;6.03;;;1.80;99.90;;;;;;4992513;28;20211;-86
2021/12/01 01:25:05;;;;;;;7.93;5.53;;;1.70;99.90;;;;;;4992538;28;20175;-84
2021/12/01 01:27:30;;;;;;;6.93;6.00;;;1.70;99.90;;;;;;4992376;28;20183;-85
2021/12/01 01:30:00;;;;;;;7.90;5.53;;;1.70;99.90;;;;;;4992628;28;20235;-84
2021/12/01 01:32:26;;;;;;;9.53;5.60;;;1.80;99.90;;;;;;4974921;28;20171;-85
2021/12/01 01:34:52;;;;;;;6.13;5.40;;;1.80;99.90;;;;;;4992273;28;20238;-85
2021/12/01 01:37:18;;;;;;;6.33;5.70;;;1.90;99.90;;;;;;4992400;28;20510;-85
2021/12/01 01:39:46;;;;;;;9.27;5.70;;;1.90;99.90;;;;;;4992008;28;20270;-86
2021/12/01 01:42:12;;;;;;;5.83;5.23;;;1.80;99.90;;;;;;4974784;28;20227;-85
2021/12/01 01:44:38;;;;;;;5.83;5.23;;;1.90;99.90;;;;;;4992103;28;20175;-85
2021/12/01 01:47:04;;;;;;;5.93;5.13;;;1.70;99.90;;;;;;4992192;28;20555;-85
2021/12/01 01:49:49;;;;;;;6.37;5.03;;;1.70;99.90;;;;;;4974485;28;20180;-85
2021/12/01 01:52:15;;;;;;;6.27;5.17;;;1.80;99.90;;;;;;4992260;28;20502;-86
2021/12/01 01:54:41;;;;;;;6.27;5.40;;;1.70;99.90;;;;;;4992579;28;20195;-86
2021/12/01 01:57:06;;;;;;;8.87;5.17;;;1.60;99.90;;;;;;5000376;28;20160;-86
2021/12/01 01:59:32;;;;;;;5.87;5.27;;;1.60;99.90;;;;;;5013261;28;20282;-86
2021/12/01 02:01:59;;;;;;;6.83;5.23;;;1.60;99.90;;;;;;5005596;28;20210;-84
2021/12/01 02:04:27;;;;;;;7.00;5.10;;;1.50;99.90;;;;;;4994608;28;20193;-86
2021/12/01 02:06:53;;;;;;;5.70;4.90;;;1.60;99.90;;;;;;4974916;28;20587;-86
2021/12/01 02:09:23;;;;;;;5.53;4.57;;;1.60;99.90;;;;;;4991940;28;20186;-85
2021/12/01 02:11:54;;;;;;;6.67;5.17;;;1.60;99.90;;;;;;4991833;28;20571;-85
2021/12/01 02:14:20;;;;;;;5.63;4.70;;;1.60;99.90;;;;;;4991935;28;20177;-86
2021/12/01 02:16:46;;;;;;;4.90;4.50;;;1.70;99.90;;;;;;4991588;28;20182;-86
2021/12/01 02:19:12;;;;;;;5.17;4.43;;;1.70;99.90;;;;;;4991528;28;20187;-86
2021/12/01 02:21:38;;;;;;;4.73;4.20;;;1.70;99.90;;;;;;4991829;28;20214;-86
2021/12/01 02:24:06;;;;;;;4.57;4.23;;;1.70;99.90;;;;;;4991562;28;20317;-86
2021/12/01 02:26:38;;;;;;;4.20;3.90;;;1.60;99.90;;;;;;4991624;28;20256;-86
2021/12/01 02:29:07;;;;;;;4.33;4.03;;;1.60;99.90;;;;;;4997858;28;20163;-86
2021/12/01 02:31:35;;;;;;;4.80;4.00;;;1.60;99.90;;;;;;4998222;28;20188;-85
2021/12/01 02:34:03;;;;;;;3.70;3.40;;;1.50;99.90;;;;;;4980010;28;20285;-85
2021/12/01 02:36:29;;;;;;;5.50;3.93;;;1.50;99.90;;;;;;4997972;28;20183;-86
2021/12/01 02:38:56;;;;;;;3.87;3.60;;;1.50;99.90;;;;;;5000166;28;20286;-86
2021/12/01 02:41:31;;;;;;;3.80;3.50;;;1.50;99.90;;;;;;4998090;28;20674;-85
2021/12/01 02:43:59;;;;;;;3.80;3.57;;;1.50;99.90;;;;;;4997873;28;20174;-85
2021/12/01 02:46:24;;;;;;;3.83;3.53;;;1.60;99.90;;;;;;4997863;28;20198;-85
2021/12/01 02:48:51;;;;;;;4.03;3.60;;;1.70;99.90;;;;;;4980531;28;20184;-85
2021/12/01 02:51:19;;;;;;;4.83;3.80;;;1.70;99.90;;;;;;4981210;28;20210;-85
2021/12/01 02:53:45;;;;;;;3.63;3.37;;;1.60;99.90;;;;;;5002645;28;20183;-86
2021/12/01 02:56:11;;;;;;;3.37;3.17;;;1.70;99.90;;;;;;5011596;28;20174;-86
2021/12/01 02:58:40;;;;;;;3.50;3.30;;;1.80;99.90;;;;;;5011923;28;20657;-85
2021/12/01 03:01:14;;;;;;;3.60;3.30;;;1.70;99.90;;;;;;5005734;28;20221;-86
2021/12/01 03:03:41;;;;;;;4.47;4.10;;;1.70;99.90;;;;;;4999640;28;20206;-86
2021/12/01 03:06:07;;;;;;;3.90;3.60;;;1.60;99.90;;;;;;4998195;28;20258;-86
2021/12/01 03:08:35;;;;;;;4.33;3.50;;;1.70;99.90;;;;;;4997852;28;20183;-85
2021/12/01 03:11:01;;;;;;;3.73;3.40;;;1.70;99.90;;;;;;4997938;28;20202;-85
2021/12/01 03:13:27;;;;;;;3.80;3.50;;;1.70;99.90;;;;;;4980392;28;20230;-86
2021/12/01 03:15:54;;;;;;;3.73;3.17;;;1.70;99.90;;;;;;5001640;28;20221;-86
2021/12/01 03:18:20;;;;;;;3.57;3.27;;;1.50;99.90;;;;;;4997521;28;20180;-86
2021/12/01 03:20:47;;;;;;;3.80;3.50;;;1.60;99.90;;;;;;4997588;28;20264;-85
2021/12/01 03:23:13;;;;;;;4.10;3.80;;;1.60;99.90;;;;;;4997893;28;20234;-85
2021/12/01 03:25:39;;;;;;;3.30;3.10;;;1.70;99.90;;;;;;4997892;28;20186;-86
2021/12/01 03:28:07;;;;;;;4.97;3.60;;;1.70;99.90;;;;;;4997618;28;20175;-86
2021/12/01 03:30:34;;;;;;;3.43;3.20;;;1.60;99.90;;;;;;4997654;28;20647;-86
2021/12/01 03:33:01;;;;;;;3.63;3.33;;;1.70;99.90;;;;;;4997474;28;20505;-86
2021/12/01 03:35:27;;;;;;;3.70;3.40;;;1.80;99.90;;;;;;4998882;28;20168;-86
2021/12/01 03:37:54;;;;;;;3.70;3.40;;;1.80;99.90;;;;;;4997541;28;20178;-85
2021/12/01 03:40:19;;;;;;;5.27;4.50;;;1.70;99.90;;;;;;4993392;28;20229;-85
2021/12/01 03:42:45;;;;;;;3.30;2.93;;;1.80;99.90;;;;;;4999442;28;20179;-85
2021/12/01 03:45:13;;;;;;;3.57;3.27;;;1.70;99.90;;;;;;4979447;28;20179;-86
2021/12/01 03:47:39;;;;;;;3.70;3.40;;;1.60;99.90;;;;;;4999498;28;20183;-85
2021/12/01 03:50:05;;;;;;;3.40;3.20;;;1.60;99.90;;;;;;5018184;28;20188;-85
2021/12/01 03:52:32;;;;;;;2.97;2.77;;;1.80;99.90;;;;;;5010124;28;20278;-86
2021/12/01 03:54:58;;;;;;;4.53;3.60;;;1.80;99.90;;;;;;4996598;28;20262;-86
2021/12/01 03:57:24;;;;;;;4.17;3.50;;;1.90;99.90;;;;;;4994746;28;20179;-85
2021/12/01 03:59:50;;;;;;;4.00;3.70;;;1.90;99.90;;;;;;4994449;28;20230;-85
2021/12/01 04:02:16;;;;;;;3.70;3.40;;;2.00;99.90;;;;;;4994096;28;20274;-84
2021/12/01 04:04:42;;;;;;;3.47;3.17;;;2.00;99.90;;;;;;4976398;28;20282;-86
2021/12/01 04:07:08;;;;;;;3.77;3.47;;;2.10;99.90;;;;;;4994062;28;20333;-86
2021/12/01 04:09:36;;;;;;;3.83;3.53;;;2.10;99.90;;;;;;4995212;28;20181;-85
2021/12/01 04:12:02;;;;;;;3.70;3.40;;;2.00;99.90;;;;;;4994010;28;20585;-86
2021/12/01 04:14:28;;;;;;;3.60;3.27;;;2.10;99.90;;;;;;4994064;28;20176;-86
2021/12/01 04:16:54;;;;;;;3.50;3.00;;;2.20;99.90;;;;;;4993994;28;20176;-86
2021/12/01 04:19:19;;;;;;;3.47;3.17;;;2.10;99.90;;;;;;4994331;28;20190;-85
2021/12/01 04:21:45;;;;;;;2.93;2.73;;;2.20;99.90;;;;;;4993640;28;20224;-86
2021/12/01 04:24:11;;;;;;;3.40;3.20;;;2.30;99.90;;;;;;4976113;28;20187;-85
2021/12/01 04:26:37;;;;;;;3.33;3.10;;;2.30;99.90;;;;;;4993191;28;20689;-85
2021/12/01 04:29:04;;;;;;;4.67;3.17;;;2.40;99.90;;;;;;4993601;28;20641;-86
2021/12/01 04:31:33;;;;;;;3.37;2.87;;;2.40;99.90;;;;;;4993521;28;20263;-86
2021/12/01 04:34:00;;;;;;;3.67;3.07;;;2.40;99.90;;;;;;4993013;28;20659;-86
2021/12/01 04:36:29;;;;;;;3.10;2.90;;;2.40;99.90;;;;;;4993316;28;20204;-85
2021/12/01 04:38:54;;;;;;;3.00;2.80;;;2.40;99.90;;;;;;4975640;28;20208;-85
2021/12/01 04:41:22;;;;;;;3.20;2.90;;;2.50;99.90;;;;;;4975760;28;20239;-85
2021/12/01 04:43:48;;;;;;;3.23;3.03;;;2.50;99.90;;;;;;4993141;28;20172;-84
2021/12/01 04:46:19;;;;;;;3.10;2.90;;;2.30;99.90;;;;;;4993243;28;20186;-85
2021/12/01 04:48:48;;;;;;;3.20;2.97;;;2.10;99.90;;;;;;4992873;28;20236;-85
2021/12/01 04:51:14;;;;;;;3.20;3.00;;;2.10;99.90;;;;;;4992835;28;20189;-85
2021/12/01 04:53:40;;;;;;;3.10;2.90;;;2.30;99.90;;;;;;4993178;28;20183;-86
2021/12/01 04:56:06;;;;;;;2.90;2.80;;;2.20;99.90;;;;;;4993033;28;20189;-86
2021/12/01 04:58:33;;;;;;;2.90;2.70;;;2.30;99.90;;;;;;4993099;28;20176;-86
2021/12/01 05:01:00;;;;;;;3.40;3.10;;;2.30;99.90;;;;;;4992910;28;20245;-85
2021/12/01 05:03:26;;;;;;;3.40;3.20;;;2.30;99.90;;;;;;4992625;28;20245;-86
2021/12/01 05:05:52;;;;;;;3.20;3.00;;;2.50;99.90;;;;;;4993008;28;20636;-85
2021/12/01 05:08:20;;;;;;;3.50;3.20;;;2.60;99.90;;;;;;4975297;28;20548;-85
2021/12/01 05:10:46;;;;;;;3.70;3.40;;;2.60;99.90;;;;;;4975288;28;20659;-86
2021/12/01 05:13:12;;;;;;;3.47;3.17;;;2.60;99.90;;;;;;4992819;28;20202;-85
2021/12/01 05:15:38;;;;;;;3.30;3.10;;;2.70;99.90;;;;;;4992689;28;20315;-85
2021/12/01 05:18:08;;;;;;;4.70;4.30;;;2.70;99.90;;;;;;4992426;28;20267;-85
2021/12/01 05:20:34;;;;;;;7.03;4.50;;;2.70;99.90;;;;;;4992882;28;20989;-85
2021/12/01 05:22:59;;;;;;;4.90;3.90;;;2.70;99.90;;;;;;4992639;28;20254;-86
2021/12/01 05:25:25;;;;;;;3.50;3.27;;;2.70;99.90;;;;;;4992535;28;20190;-85
2021/12/01 05:27:51;;;;;;;3.37;3.03;;;2.70;99.90;;;;;;4993709;28;20184;-85
2021/12/01 05:30:18;;;;;;;3.93;3.50;;;2.80;99.90;;;;;;4975367;28;20291;-86
2021/12/01 05:32:44;;;;;;;4.10;3.30;;;2.70;99.90;;;;;;4992399;28;20187;-85
2021/12/01 05:35:10;;;;;;;3.23;3.00;;;2.70;99.90;;;;;;4992716;28;20239;-86
2021/12/01 05:37:36;;;;;;;5.10;3.40;;;2.80;99.90;;;;;;4993725;28;20181;-85
2021/12/01 05:40:02;;;;;;;3.20;2.90;;;2.70;99.90;;;;;;5015699;28;20227;-84
2021/12/01 05:42:28;;;;;;;3.37;3.07;;;2.70;99.90;;;;;;5001195;28;20234;-84
2021/12/01 05:44:55;;;;;;;5.17;2.87;;;2.50;99.90;;;;;;5002087;28;20184;-85
2021/12/01 05:47:21;;;;;;;2.90;2.70;;;2.70;99.90;;;;;;4993318;28;20175;-85
2021/12/01 05:49:47;;;;;;;3.23;3.00;;;2.80;99.90;;;;;;4994425;28;20192;-86
2021/12/01 05:52:14;;;;;;;3.03;2.83;;;2.70;99.90;;;;;;4978099;28;20178;-85
2021/12/01 05:54:40;;;;;;;3.07;2.87;;;2.60;99.90;;;;;;4996008;28;20259;-85
2021/12/01 05:57:06;;;;;;;3.20;2.97;;;2.70;99.90;;;;;;4996864;28;20180;-84
2021/12/01 05:59:32;;;;;;;3.10;2.90;;;2.70;99.90;;;;;;4994419;28;20185;-85
2021/12/01 06:01:58;;;;;;;3.10;2.90;;;2.80;99.90;;;;;;4973875;28;20625;-86
2021/12/01 06:04:27;;;;;;;3.70;3.40;;;2.90;99.90;;;;;;4991998;28;20185;-86
2021/12/01 06:06:53;;;;;;;3.93;3.27;;;3.00;99.90;;;;;;4992104;28;20926;-86
2021/12/01 06:09:19;;;;;;;3.67;3.37;;;3.10;99.90;;;;;;4992168;28;20169;-85
2021/12/01 06:11:47;;;;;;;3.70;3.40;;;3.10;99.90;;;;;;4992056;28;20239;-85
2021/12/01 06:14:14;;;;;;;3.93;3.17;;;3.20;99.90;;;;;;4991700;28;20172;-85
2021/12/01 06:16:42;;;;;;;3.87;3.40;;;3.20;99.90;;;;;;4991858;28;20179;-85
2021/12/01 06:19:07;;;;;;;4.00;3.70;;;3.10;99.90;;;;;;4973562;28;20185;-85
2021/12/01 06:21:33;;;;;;;4.40;4.10;;;3.20;99.90;;;;;;4991699;28;20207;-86
2021/12/01 06:23:59;;;;;;;10.23;6.93;;;3.10;99.90;;;;;;4973981;28;20173;-86
2021/12/01 06:26:25;;;;;;;10.90;8.00;;;3.20;99.90;;;;;;4992331;28;20594;-86
2021/12/01 06:28:51;;;;;;;13.43;9.00;;;3.20;99.90;;;;;;4977092;28;20204;-84
2021/12/01 06:31:17;;;;;;;16.07;8.47;;;2.90;99.90;;;;;;4991975;28;20173;-85
2021/12/01 06:33:43;;;;;;;19.53;8.90;;;2.90;99.90;;;;;;4991369;28;20171;-85
2021/12/01 06:36:09;;;;;;;15.93;7.93;;;2.90;99.90;;;;;;4991569;28;20670;-85
2021/12/01 06:38:35;;;;;;;18.17;8.40;;;2.90;99.90;;;;;;4991519;28;20180;-84
2021/12/01 06:41:02;;;;;;;14.13;8.00;;;3.00;99.90;;;;;;4991286;28;20231;-85
2021/12/01 06:43:28;;;;;;;14.67;8.70;;;2.80;99.90;;;;;;4991666;28;20649;-85
2021/12/01 06:45:54;;;;;;;13.50;8.33;;;2.80;99.90;;;;;;4992158;28;20191;-85
2021/12/01 06:48:19;;;;;;;13.80;9.27;;;2.80;99.90;;;;;;4991306;28;20180;-85
2021/12/01 06:50:45;;;;;;;14.10;9.20;;;2.80;99.90;;;;;;4991610;28;20185;-85
2021/12/01 06:53:11;;;;;;;14.47;8.87;;;2.70;99.90;;;;;;4991573;28;20264;-85
2021/12/01 06:55:37;;;;;;;13.03;8.37;;;2.90;99.90;;;;;;4996229;28;20176;-86
2021/12/01 06:58:03;;;;;;;13.70;7.80;;;2.90;99.90;;;;;;4977630;28;20184;-86
2021/12/01 07:00:30;;;;;;;15.07;8.23;;;2.80;99.90;;;;;;4992887;28;20173;-86
2021/12/01 07:02:56;;;;;;;13.77;7.60;;;2.80;99.90;;;;;;4991107;28;20178;-85
2021/12/01 07:05:22;;;;;;;9.57;7.20;;;2.80;99.90;;;;;;4991618;28;20170;-85
2021/12/01 07:07:48;;;;;;;12.60;6.83;;;3.00;99.90;;;;;;4991489;28;20184;-84
2021/12/01 07:10:15;;;;;;;10.17;6.90;;;3.00;99.90;;;;;;4991457;28;20541;-84
2021/12/01 07:12:42;;;;;;;9.20;7.23;;;3.10;99.90;;;;;;4991490;28;20297;-84
2021/12/01 07:15:10;;;;;;;7.60;6.30;;;3.10;99.90;;;;;;4994556;28;20175;-84
2021/12/01 07:17:36;;;;;;;6.53;5.80;;;3.10;99.90;;;;;;4994925;28;20192;-85
2021/12/01 07:20:03;;;;;;;5.97;5.37;;;3.10;99.90;;;;;;4995103;28;20169;-85
2021/12/01 07:22:29;;;;;;;6.57;5.37;;;3.10;99.90;;;;;;4995401;28;20300;-83
2021/12/01 07:24:55;;;;;;;5.27;4.77;;;3.10;99.90;;;;;;4977760;28;20295;-84
2021/12/01 07:27:20;;;;;;;5.90;5.30;;;3.20;99.90;;;;;;4995346;28;20173;-84
2021/12/01 07:29:46;;;;;;;16.87;11.50;;;3.10;99.90;;;;;;4995337;28;20195;-84
2021/12/01 07:32:12;;;;;;;12.47;9.00;;;2.90;99.90;;;;;;5007049;28;20174;-85
2021/12/01 07:34:42;;;;;;;11.87;8.60;;;2.80;99.90;;;;;;5015796;28;20189;-85
2021/12/01 07:37:12;;;;;;;9.40;7.90;;;2.80;99.90;;;;;;5009803;28;20167;-84
2021/12/01 07:39:39;;;;;;;11.97;7.30;;;2.90;99.90;;;;;;4999596;28;20235;-85
2021/12/01 07:42:06;;;;;;;9.60;7.30;;;3.00;99.90;;;;;;4994874;28;20209;-85
2021/12/01 07:44:32;;;;;;;9.73;6.20;;;3.20;99.90;;;;;;4994806;28;20181;-86
2021/12/01 07:46:59;;;;;;;10.53;6.47;;;3.40;99.90;;;;;;4997320;28;20295;-87
2021/12/01 07:49:25;;;;;;;10.37;6.23;;;3.50;99.90;;;;;;4979538;28;20631;-87
2021/12/01 07:51:51;;;;;;;8.10;6.50;;;3.70;99.90;;;;;;4995155;28;20231;-86
2021/12/01 07:54:17;;;;;;;9.93;6.53;;;4.00;99.90;;;;;;4994815;28;20174;-87
2021/12/01 07:56:43;;;;;;;7.97;6.43;;;4.00;99.90;;;;;;4994470;28;20182;-86
2021/12/01 07:59:11;;;;;;;11.63;6.03;;;4.00;99.90;;;;;;4999753;28;20179;-85
2021/12/01 08:01:36;;;;;;;8.40;6.73;;;4.20;99.90;;;;;;5005995;28;20212;-87
2021/12/01 08:04:03;;;;;;;7.80;6.33;;;4.30;99.90;;;;;;5001896;28;20239;-86
2021/12/01 08:06:32;;;;;;;7.83;6.70;;;4.40;99.90;;;;;;4976292;28;20190;-86
2021/12/01 08:09:00;;;;;;;13.87;7.97;;;4.50;99.90;;;;;;4976600;28;20948;-86
2021/12/01 08:11:29;;;;;;;12.90;8.77;;;4.60;99.90;;;;;;4994385;28;20177;-87
2021/12/01 08:13:55;;;;;;;13.17;7.57;;;4.60;99.90;;;;;;4994066;28;20529;-85
2021/12/01 08:16:21;;;;;;;16.87;12.07;;;4.50;99.90;;;;;;4993809;28;20273;-85
2021/12/01 08:18:55;;;;;;;14.03;9.83;;;4.60;99.90;;;;;;4993756;28;20637;-86
2021/12/01 08:21:22;;;;;;;9.57;7.87;;;4.50;99.90;;;;;;4993718;28;20672;-85
2021/12/01 08:23:48;;;;;;;14.73;9.43;;;4.50;99.90;;;;;;4994005;28;20211;-87
2021/12/01 08:26:14;;;;;;;13.00;8.80;;;4.50;99.90;;;;;;4993612;28;20175;-86
2021/12/01 08:28:45;;;;;;;11.53;8.53;;;4.60;99.90;;;;;;4976935;28;20607;-86
2021/12/01 08:31:16;;;;;;;12.07;8.17;;;4.70;99.90;;;;;;4976348;28;20270;-85
2021/12/01 08:33:42;;;;;;;12.97;9.33;;;4.80;99.90;;;;;;4975775;28;20178;-86
2021/12/01 08:36:10;;;;;;;11.27;8.27;;;4.90;99.90;;;;;;4993611;28;20177;-86
2021/12/01 08:38:37;;;;;;;14.17;8.70;;;4.80;99.90;;;;;;4975851;28;20185;-85
2021/12/01 08:41:04;;;;;;;19.97;9.13;;;4.90;99.90;;;;;;4993749;28;20236;-86
2021/12/01 08:43:30;;;;;;;12.83;8.73;;;5.00;99.90;;;;;;4993391;28;20170;-86
2021/12/01 08:45:57;;;;;;;16.77;8.67;;;5.00;99.90;;;;;;4994058;28;20170;-85
2021/12/01 08:48:23;;;;;;;13.67;9.23;;;4.90;99.90;;;;;;4976008;28;20186;-85
2021/12/01 08:50:49;;;;;;;14.77;8.60;;;4.90;99.90;;;;;;4996705;28;20178;-86
2021/12/01 08:53:14;;;;;;;15.17;9.23;;;4.90;99.90;;;;;;4994046;28;20176;-85
2021/12/01 08:55:41;;;;;;;14.83;9.63;;;4.90;99.90;;;;;;4993192;28;20569;-86
2021/12/01 08:58:12;;;;;;;12.27;9.10;;;4.90;99.90;;;;;;4993485;28;20193;-85
2021/12/01 09:00:43;;;;;;;16.03;9.57;;;4.90;99.90;;;;;;4993165;28;20260;-86
2021/12/01 09:03:16;;;;;;;12.50;9.50;;;4.80;99.90;;;;;;4975349;28;20200;-85
2021/12/01 09:05:45;;;;;;;15.03;9.10;;;4.90;99.90;;;;;;4993372;28;20168;-86
2021/12/01 09:08:13;;;;;;;12.53;8.90;;;5.00;99.90;;;;;;4993210;28;20708;-86
2021/12/01 09:10:42;;;;;;;17.40;10.17;;;4.90;99.90;;;;;;4992966;28;20184;-86
2021/12/01 09:13:08;;;;;;;15.43;9.57;;;4.90;99.90;;;;;;4993052;28;20201;-85
2021/12/01 09:15:34;;;;;;;16.67;8.73;;;5.00;99.90;;;;;;4993346;28;20176;-86
2021/12/01 09:18:01;;;;;;;13.07;9.23;;;5.10;99.90;;;;;;4992540;28;20534;-86
2021/12/01 09:20:27;;;;;;;16.43;9.40;;;5.20;99.90;;;;;;4975315;28;20181;-86
2021/12/01 09:22:54;;;;;;;16.23;10.40;;;5.20;99.90;;;;;;4996805;28;20186;-86
2021/12/01 09:25:20;;;;;;;15.03;10.50;;;5.30;99.90;;;;;;5000385;28;20182;-86
2021/12/01 09:27:47;;;;;;;18.80;11.03;;;5.40;99.90;;;;;;5016460;28;20295;-86
2021/12/01 09:30:16;;;;;;;19.10;10.30;;;5.40;99.90;;;;;;5009915;28;20205;-85
2021/12/01 09:32:42;;;;;;;17.43;12.03;;;5.50;99.90;;;;;;4975539;28;20187;-86
2021/12/01 09:35:09;;;;;;;16.47;11.03;;;5.40;99.90;;;;;;4975017;28;20182;-86
2021/12/01 09:37:36;;;;;;;18.87;11.63;;;5.40;99.90;;;;;;4991646;28;20180;-85
2021/12/01 09:40:04;;;;;;;18.30;10.23;;;5.30;99.90;;;;;;4992391;28;20274;-86
2021/12/01 09:42:31;;;;;;;14.40;9.03;;;5.30;99.90;;;;;;4992104;28;20205;-86
2021/12/01 09:44:57;;;;;;;14.40;9.60;;;5.30;99.90;;;;;;4992162;28;20169;-86
2021/12/01 09:47:24;;;;;;;17.07;9.50;;;5.40;99.90;;;;;;4992359;28;20181;-86
2021/12/01 09:49:51;;;;;;;17.97;9.63;;;5.50;99.90;;;;;;4974278;28;20181;-85
2021/12/01 09:52:18;;;;;;;14.37;8.43;;;5.50;99.90;;;;;;4974718;28;20177;-86
2021/12/01 09:54:44;;;;;;;14.23;8.07;;;5.50;99.90;;;;;;4991991;28;20178;-87
2021/12/01 09:57:13;;;;;;;10.37;7.10;;;5.50;99.90;;;;;;4991300;28;20177;-86
2021/12/01 09:59:40;;;;;;;14.30;7.80;;;5.50;99.90;;;;;;4974002;28;20209;-86
2021/12/01 10:02:07;;;;;;;11.10;6.87;;;5.50;99.90;;;;;;4991900;28;20209;-85
2021/12/01 10:04:33;;;;;;;15.40;8.30;;;5.60;99.90;;;;;;4991495;28;20226;-86
2021/12/01 10:07:15;;;;;;;12.97;7.60;;;5.60;99.90;;;;;;4991765;28;20186;-85
2021/12/01 10:09:48;;;;;;;14.40;8.30;;;5.50;99.90;;;;;;4991928;28;20160;-85
2021/12/01 10:12:15;;;;;;;15.53;8.50;;;5.50;99.90;;;;;;4992129;28;20169;-86
2021/12/01 10:14:51;;;;;;;15.10;8.37;;;5.50;99.90;;;;;;4974430;28;20212;-87
2021/12/01 10:17:31;;;;;;;13.10;8.17;;;5.60;99.90;;;;;;4991890;28;20172;-85
2021/12/01 10:20:15;;;;;;;14.63;8.57;;;5.70;99.90;;;;;;4991392;28;20208;-85
2021/12/01 10:23:08;;;;;;;10.60;8.27;;;5.70;99.90;;;;;;4991679;28;20194;-86
2021/12/01 10:25:34;;;;;;;14.47;8.67;;;5.70;99.90;;;;;;4991464;28;20208;-87
2021/12/01 10:28:00;;;;;;;16.37;8.50;;;5.70;99.90;;;;;;4991962;28;20213;-86
2021/12/01 10:30:43;;;;;;;12.10;8.00;;;5.60;99.90;;;;;;4992038;28;20224;-86
2021/12/01 10:33:14;;;;;;;12.13;8.60;;;5.60;99.90;;;;;;4991355;28;20184;-86
2021/12/01 10:35:49;;;;;;;14.50;9.77;;;5.80;99.90;;;;;;4991680;28;20695;-86
2021/12/01 10:38:26;;;;;;;12.40;7.60;;;5.70;99.90;;;;;;4991783;28;20540;-85
2021/12/01 10:41:12;;;;;;;11.27;7.47;;;5.80;99.90;;;;;;4974133;28;20229;-88
2021/12/01 10:43:47;;;;;;;8.80;7.00;;;5.70;99.90;;;;;;4974677;28;20181;-86
2021/12/01 10:46:17;;;;;;;20.73;12.63;;;5.80;99.90;;;;;;4973903;28;20541;-86
2021/12/01 10:49:03;;;;;;;13.37;9.20;;;5.80;99.90;;;;;;4978474;28;20244;-88
2021/12/01 10:51:37;;;;;;;13.40;7.90;;;5.90;99.90;;;;;;4983016;28;20216;-87
2021/12/01 10:54:05;;;;;;;29.73;19.47;;;5.90;99.90;;;;;;4998565;28;20498;-87
2021/12/01 10:56:31;;;;;;;15.73;8.57;;;6.10;99.90;;;;;;4997119;28;20177;-88
2021/12/01 10:59:09;;;;;;;10.87;6.97;;;6.30;99.90;;;;;;4979098;28;20622;-87
2021/12/01 11:01:34;;;;;;;9.63;7.43;;;6.40;99.90;;;;;;4996048;28;20215;-87
2021/12/01 11:04:00;;;;;;;12.13;7.40;;;6.50;99.90;;;;;;4995017;28;20176;-87
2021/12/01 11:06:27;;;;;;;12.60;7.37;;;6.60;99.90;;;;;;4977570;28;20186;-86
2021/12/01 11:08:58;;;;;;;12.23;7.00;;;6.60;99.90;;;;;;4977709;28;20265;-88
2021/12/01 11:11:42;;;;;;;14.43;6.70;;;6.70;99.90;;;;;;4995400;28;20678;-87
2021/12/01 11:14:19;;;;;;;16.37;6.40;;;6.70;99.90;;;;;;4996135;28;20174;-86
2021/12/01 11:16:45;;;;;;;7.60;5.93;;;6.60;99.90;;;;;;4979583;28;20683;-86
2021/12/01 11:19:12;;;;;;;9.77;6.43;;;6.60;99.90;;;;;;4995309;28;20184;-87
2021/12/01 11:21:39;;;;;;;13.23;6.70;;;6.70;99.90;;;;;;4998105;28;20220;-87
2021/12/01 11:24:13;;;;;;;8.83;6.30;;;6.70;99.90;;;;;;4974487;28;20216;-86
2021/12/01 11:26:44;;;;;;;10.17;6.70;;;6.80;99.90;;;;;;4977129;28;20255;-87
2021/12/01 11:29:15;;;;;;;8.53;6.70;;;6.80;99.90;;;;;;4959841;28;20550;-87
2021/12/01 11:31:51;;;;;;;7.60;5.67;;;6.80;99.90;;;;;;4959331;28;20192;-86
2021/12/01 11:34:20;;;;;;;6.63;5.30;;;6.80;99.90;;;;;;4973746;28;20229;-87
2021/12/01 11:36:47;;;;;;;10.50;7.57;;;6.80;99.90;;;;;;4977661;28;20707;-87
2021/12/01 11:39:21;;;;;;;6.53;5.10;;;6.70;99.90;;;;;;4992529;28;20245;-87
2021/12/01 11:41:54;;;;;;;6.10;5.50;;;6.60;99.90;;;;;;4994588;28;20205;-87
2021/12/01 11:44:21;;;;;;;7.00;5.43;;;6.60;99.90;;;;;;4994449;28;20529;-87
2021/12/01 11:46:50;;;;;;;11.80;6.00;;;6.60;99.90;;;;;;4976780;28;20179;-87
2021/12/01 11:49:18;;;;;;;7.77;5.93;;;6.60;99.90;;;;;;4994316;28;20171;-86
2021/12/01 11:51:50;;;;;;;8.07;5.97;;;6.70;99.90;;;;;;4994433;28;20645;-87
2021/12/01 11:54:19;;;;;;;7.23;5.70;;;6.70;99.90;;;;;;4994383;28;20166;-87
2021/12/01 11:57:08;;;;;;;8.63;6.70;;;6.80;99.90;;;;;;4976670;28;20194;-87
2021/12/01 11:59:43;;;;;;;7.93;5.63;;;6.80;99.90;;;;;;4964445;28;20193;-87
2021/12/01 12:02:18;;;;;;;11.50;5.80;;;6.90;99.90;;;;;;4994416;28;20243;-87
2021/12/01 12:04:49;;;;;;;6.20;5.10;;;6.90;99.90;;;;;;4993995;28;20233;-87
2021/12/01 12:07:26;;;;;;;6.97;5.33;;;6.90;99.90;;;;;;4976649;28;20189;-86
2021/12/01 12:10:12;;;;;;;6.63;5.23;;;6.90;99.90;;;;;;4994160;28;20260;-86
2021/12/01 12:13:00;;;;;;;9.73;4.60;;;6.90;99.90;;;;;;4979692;28;20246;-86
2021/12/01 12:15:35;;;;;;;6.27;4.00;;;7.00;99.90;;;;;;4976652;28;20177;-86
2021/12/01 12:18:01;;;;;;;6.60;4.40;;;7.00;99.90;;;;;;4993470;28;20241;-85
2021/12/01 12:20:34;;;;;;;5.43;4.90;;;6.90;99.90;;;;;;4976635;28;20268;-87
2021/12/01 12:23:07;;;;;;;5.30;4.67;;;6.90;99.90;;;;;;4976373;28;20702;-86
2021/12/01 12:25:57;;;;;;;4.50;4.10;;;6.90;99.90;;;;;;4993769;28;20242;-86
2021/12/01 12:28:32;;;;;;;4.70;4.30;;;7.00;99.90;;;;;;4976794;28;20228;-87
2021/12/01 12:31:05;;;;;;;4.60;4.20;;;6.80;99.90;;;;;;4993727;28;20168;-87
2021/12/01 12:33:40;;;;;;;6.10;4.70;;;6.90;99.90;;;;;;4975996;28;20185;-87
2021/12/01 12:36:10;;;;;;;4.63;4.23;;;6.80;99.90;;;;;;4976641;28;20181;-87
2021/12/01 12:38:37;;;;;;;6.13;4.30;;;6.90;99.90;;;;;;4994163;28;20266;-87
2021/12/01 12:41:13;;;;;;;7.77;3.87;;;7.00;99.90;;;;;;4975923;28;20237;-87
2021/12/01 12:43:43;;;;;;;4.80;4.07;;;7.00;99.90;;;;;;4994010;28;20184;-86
2021/12/01 12:46:12;;;;;;;4.00;3.60;;;7.00;99.90;;;;;;4993500;28;20177;-86
2021/12/01 12:48:43;;;;;;;4.40;3.77;;;7.10;99.90;;;;;;4975757;28;20181;-87
2021/12/01 12:51:13;;;;;;;4.70;3.60;;;7.20;99.90;;;;;;4994944;28;20223;-85
2021/12/01 12:54:08;;;;;;;4.13;3.73;;;7.20;99.90;;;;;;4994993;28;20180;-86
2021/12/01 12:56:39;;;;;;;3.50;3.20;;;7.00;99.90;;;;;;4995477;28;20210;-86
2021/12/01 12:59:20;;;;;;;6.40;3.63;;;7.10;99.90;;;;;;4996233;28;20242;-87
2021/12/01 13:01:54;;;;;;;3.87;3.57;;;7.20;99.90;;;;;;4998097;28;20212;-87
2021/12/01 13:04:48;;;;;;;3.73;3.40;;;7.20;99.90;;;;;;4999979;28;20242;-87